Time;durP1;ratioP1;P1;durP2;ratioP2;P2;SDS_P1;SDS_P2;PMS_P1;PMS_P2;Temp;Humidity;BMP_temperature;BMP_pressure;BME280_temperature;BME280_humidity;BME280_pressure;Samples;Min_cycle;Max_cycle;Signal;HPM_P1;HPM_P2
2021/03/06 00:01:59;;;;;;;8.27;2.53;;;;;;;;;;5113171;28;20038;-77
2021/03/06 00:04:24;;;;;;;4.43;2.05;;;;;;;;;;5095476;28;20046;-77
2021/03/06 00:06:49;;;;;;;3.72;2.20;;;;;;;;;;5113277;28;20024;-77
2021/03/06 00:09:15;;;;;;;4.35;1.92;;;;;;;;;;5098238;28;20042;-77
2021/03/06 00:11:40;;;;;;;4.10;2.30;;;;;;;;;;5117387;28;20057;-77
2021/03/06 00:14:06;;;;;;;4.93;2.38;;;;;;;;;;5117033;28;20036;-77
2021/03/06 00:16:31;;;;;;;3.83;2.38;;;;;;;;;;5117008;28;20103;-77
2021/03/06 00:18:56;;;;;;;3.67;1.90;;;;;;;;;;5122218;27;20042;-77
2021/03/06 00:21:22;;;;;;;3.30;1.80;;;;;;;;;;5137997;27;20122;-77
2021/03/06 00:23:48;;;;;;;6.05;2.20;;;;;;;;;;5137458;27;20039;-77
2021/03/06 00:26:13;;;;;;;3.08;1.73;;;;;;;;;;5119573;27;20038;-77
2021/03/06 00:28:39;;;;;;;3.17;1.80;;;;;;;;;;5138056;27;20031;-77
2021/03/06 00:31:04;;;;;;;3.35;2.00;;;;;;;;;;5137591;27;20058;-77
2021/03/06 00:33:30;;;;;;;3.25;1.90;;;;;;;;;;5137227;27;20031;-78
2021/03/06 00:35:55;;;;;;;2.90;1.98;;;;;;;;;;5118796;27;20035;-77
2021/03/06 00:38:20;;;;;;;4.97;2.40;;;;;;;;;;5106703;28;20030;-77
2021/03/06 00:40:46;;;;;;;7.78;2.05;;;;;;;;;;5116603;28;20437;-77
2021/03/06 00:43:11;;;;;;;4.60;1.90;;;;;;;;;;5098331;28;20058;-77
2021/03/06 00:45:37;;;;;;;7.00;2.13;;;;;;;;;;5116498;28;20044;-77
2021/03/06 00:48:03;;;;;;;2.70;2.00;;;;;;;;;;5098249;28;20063;-77
2021/03/06 00:50:34;;;;;;;7.05;2.30;;;;;;;;;;5127592;27;20031;-78
2021/03/06 00:53:03;;;;;;;4.65;2.50;;;;;;;;;;5136983;27;20035;-76
2021/03/06 00:55:30;;;;;;;2.40;1.70;;;;;;;;;;5136692;27;20485;-77
2021/03/06 00:57:56;;;;;;;5.30;2.97;;;;;;;;;;5101498;27;20079;-77
2021/03/06 01:00:23;;;;;;;5.70;2.30;;;;;;;;;;5137183;27;20059;-77
2021/03/06 01:02:50;;;;;;;3.00;2.47;;;;;;;;;;5119078;27;20053;-77
2021/03/06 01:05:15;;;;;;;6.00;2.50;;;;;;;;;;5136478;27;20556;-77
2021/03/06 01:07:41;;;;;;;4.22;2.30;;;;;;;;;;5136207;27;20116;-77
2021/03/06 01:10:11;;;;;;;3.28;1.80;;;;;;;;;;5136614;27;20066;-77
2021/03/06 01:12:36;;;;;;;3.15;1.90;;;;;;;;;;5136492;27;20031;-77
2021/03/06 01:15:03;;;;;;;5.90;1.83;;;;;;;;;;5118383;27;20495;-77
2021/03/06 01:17:29;;;;;;;4.55;1.98;;;;;;;;;;5136537;27;20034;-77
2021/03/06 01:19:54;;;;;;;9.50;2.35;;;;;;;;;;5128746;27;20035;-78
2021/03/06 01:22:20;;;;;;;3.60;2.10;;;;;;;;;;5097921;28;20558;-77
2021/03/06 01:24:45;;;;;;;6.13;2.45;;;;;;;;;;5097374;28;20040;-77
2021/03/06 01:27:11;;;;;;;5.28;2.10;;;;;;;;;;5115433;28;20024;-77
2021/03/06 01:29:36;;;;;;;4.75;2.13;;;;;;;;;;5115586;28;20143;-77
2021/03/06 01:32:02;;;;;;;3.35;1.90;;;;;;;;;;5115991;28;20071;-77
2021/03/06 01:34:27;;;;;;;6.97;2.22;;;;;;;;;;5097212;28;20039;-77
2021/03/06 01:36:53;;;;;;;4.68;2.42;;;;;;;;;;5080287;28;20036;-77
2021/03/06 01:39:19;;;;;;;3.03;1.80;;;;;;;;;;5115759;28;20040;-77
2021/03/06 01:41:44;;;;;;;4.55;2.15;;;;;;;;;;5115069;28;20032;-76
2021/03/06 01:44:10;;;;;;;4.63;2.17;;;;;;;;;;5115312;28;20046;-77
2021/03/06 01:46:36;;;;;;;3.08;2.20;;;;;;;;;;5115358;28;20441;-77
2021/03/06 01:49:02;;;;;;;4.00;2.17;;;;;;;;;;5115295;28;20118;-76
2021/03/06 01:51:27;;;;;;;4.10;2.05;;;;;;;;;;5132580;27;20031;-77
2021/03/06 01:53:53;;;;;;;2.40;1.73;;;;;;;;;;5135967;27;20046;-77
2021/03/06 01:56:19;;;;;;;3.67;2.30;;;;;;;;;;5117255;27;20092;-77
2021/03/06 01:58:44;;;;;;;8.90;2.25;;;;;;;;;;5135945;27;20035;-77
2021/03/06 02:01:10;;;;;;;3.63;2.13;;;;;;;;;;5135760;27;20039;-77
2021/03/06 02:03:36;;;;;;;9.05;2.17;;;;;;;;;;5135536;27;20030;-76
2021/03/06 02:06:01;;;;;;;3.55;2.08;;;;;;;;;;5135570;27;20115;-76
2021/03/06 02:08:26;;;;;;;8.57;2.25;;;;;;;;;;5135624;27;20084;-77
2021/03/06 02:10:52;;;;;;;5.18;2.35;;;;;;;;;;5135344;27;20094;-76
2021/03/06 02:13:23;;;;;;;8.10;2.92;;;;;;;;;;5135320;27;20031;-77
2021/03/06 02:15:58;;;;;;;6.50;2.88;;;;;;;;;;5135504;27;20043;-77
2021/03/06 02:18:23;;;;;;;11.68;4.18;;;;;;;;;;5116904;27;20514;-77
2021/03/06 02:21:00;;;;;;;19.08;6.40;;;;;;;;;;5105152;28;20043;-77
2021/03/06 02:23:50;;;;;;;21.10;5.63;;;;;;;;;;5096477;28;20673;-77
2021/03/06 02:26:54;;;;;;;9.23;3.80;;;;;;;;;;5114436;28;20033;-77
2021/03/06 02:29:41;;;;;;;7.43;3.08;;;;;;;;;;5114916;28;20461;-77
2021/03/06 02:32:10;;;;;;;7.72;3.10;;;;;;;;;;5095389;28;20038;-77
2021/03/06 02:34:39;;;;;;;5.20;2.55;;;;;;;;;;5096149;28;20181;-77
2021/03/06 02:37:10;;;;;;;8.18;3.05;;;;;;;;;;5096305;28;20473;-77
2021/03/06 02:39:42;;;;;;;3.10;2.50;;;;;;;;;;5114657;28;20119;-77
2021/03/06 02:42:10;;;;;;;4.72;2.58;;;;;;;;;;5113914;28;20031;-77
2021/03/06 02:44:36;;;;;;;4.45;2.65;;;;;;;;;;5114152;28;20073;-77
2021/03/06 02:47:02;;;;;;;3.15;2.13;;;;;;;;;;5114170;28;20027;-77
2021/03/06 02:49:28;;;;;;;4.22;2.60;;;;;;;;;;5114277;28;20032;-77
2021/03/06 02:51:53;;;;;;;4.38;2.50;;;;;;;;;;5114261;28;20039;-77
2021/03/06 02:54:20;;;;;;;2.47;2.25;;;;;;;;;;5113977;28;20032;-77
2021/03/06 02:56:45;;;;;;;7.18;3.03;;;;;;;;;;5095677;28;20111;-77
2021/03/06 02:59:26;;;;;;;4.65;2.35;;;;;;;;;;5095701;28;20453;-77
2021/03/06 03:02:03;;;;;;;5.72;2.80;;;;;;;;;;5095949;28;20063;-77
2021/03/06 03:04:47;;;;;;;5.97;2.30;;;;;;;;;;5114102;28;20038;-77
2021/03/06 03:07:23;;;;;;;8.43;2.38;;;;;;;;;;5113795;28;20062;-76
2021/03/06 03:09:55;;;;;;;5.53;1.98;;;;;;;;;;5095687;28;20123;-77
2021/03/06 03:12:25;;;;;;;7.10;2.40;;;;;;;;;;5095777;28;20036;-77
2021/03/06 03:15:05;;;;;;;4.60;2.40;;;;;;;;;;5113707;28;20504;-77
2021/03/06 03:17:43;;;;;;;5.00;2.70;;;;;;;;;;5095335;28;20055;-77
2021/03/06 03:20:20;;;;;;;5.97;2.55;;;;;;;;;;5129102;27;20047;-77
2021/03/06 03:22:48;;;;;;;8.05;2.72;;;;;;;;;;5133814;27;20041;-77
2021/03/06 03:25:16;;;;;;;4.72;2.40;;;;;;;;;;5116027;27;20078;-77
2021/03/06 03:27:43;;;;;;;4.95;2.10;;;;;;;;;;5134352;27;20033;-77
2021/03/06 03:30:15;;;;;;;4.70;2.17;;;;;;;;;;5134100;28;20032;-77
2021/03/06 03:32:42;;;;;;;7.07;2.25;;;;;;;;;;5134278;28;20496;-77
2021/03/06 03:35:11;;;;;;;3.88;2.45;;;;;;;;;;5134379;28;20027;-77
2021/03/06 03:37:38;;;;;;;4.82;2.70;;;;;;;;;;5134049;27;20031;-77
2021/03/06 03:40:04;;;;;;;3.10;2.10;;;;;;;;;;5134309;27;20082;-77
2021/03/06 03:42:31;;;;;;;5.78;2.50;;;;;;;;;;5134408;27;20490;-77
2021/03/06 03:44:57;;;;;;;3.70;2.22;;;;;;;;;;5138200;27;20042;-77
2021/03/06 03:47:23;;;;;;;3.17;2.38;;;;;;;;;;5138493;27;20054;-77
2021/03/06 03:49:49;;;;;;;5.18;2.53;;;;;;;;;;5119574;27;20529;-77
2021/03/06 03:52:15;;;;;;;5.32;2.25;;;;;;;;;;5138256;27;20031;-77
2021/03/06 03:54:41;;;;;;;5.05;2.42;;;;;;;;;;5119775;27;20111;-77
2021/03/06 03:57:09;;;;;;;5.95;3.08;;;;;;;;;;5137913;27;20057;-77
2021/03/06 03:59:35;;;;;;;6.35;2.55;;;;;;;;;;5138274;27;20392;-77
2021/03/06 04:02:01;;;;;;;5.90;2.53;;;;;;;;;;5101269;28;20028;-77
2021/03/06 04:04:26;;;;;;;8.65;2.28;;;;;;;;;;5117353;28;20054;-77
2021/03/06 04:06:56;;;;;;;5.88;2.40;;;;;;;;;;5099304;28;20519;-77
2021/03/06 04:09:23;;;;;;;5.13;2.38;;;;;;;;;;5117405;28;20122;-77
2021/03/06 04:11:50;;;;;;;3.50;2.38;;;;;;;;;;5098866;28;20034;-76
2021/03/06 04:14:16;;;;;;;3.90;2.70;;;;;;;;;;5116986;28;20100;-77
2021/03/06 04:16:41;;;;;;;6.70;2.50;;;;;;;;;;5098688;28;20027;-77
2021/03/06 04:19:07;;;;;;;3.30;2.20;;;;;;;;;;5098776;28;20075;-77
2021/03/06 04:21:32;;;;;;;4.88;2.22;;;;;;;;;;5098802;28;20047;-78
2021/03/06 04:23:58;;;;;;;4.38;2.13;;;;;;;;;;5116956;28;20035;-77
2021/03/06 04:26:24;;;;;;;4.22;2.65;;;;;;;;;;5116804;28;20044;-77
2021/03/06 04:28:49;;;;;;;5.30;2.47;;;;;;;;;;5117028;28;20028;-77
2021/03/06 04:31:15;;;;;;;5.25;2.15;;;;;;;;;;5128191;27;20844;-77
2021/03/06 04:33:41;;;;;;;6.57;2.30;;;;;;;;;;5137663;27;20433;-77
2021/03/06 04:36:07;;;;;;;4.25;2.40;;;;;;;;;;5137473;27;20597;-77
2021/03/06 04:38:32;;;;;;;3.60;2.10;;;;;;;;;;5137154;27;20035;-77
2021/03/06 04:40:58;;;;;;;6.07;2.80;;;;;;;;;;5137093;27;20047;-77
2021/03/06 04:43:23;;;;;;;4.22;2.40;;;;;;;;;;5137126;27;20031;-77
2021/03/06 04:45:49;;;;;;;5.97;2.40;;;;;;;;;;5097824;28;20156;-76
2021/03/06 04:48:14;;;;;;;4.88;2.78;;;;;;;;;;5116502;28;20024;-76
2021/03/06 04:50:40;;;;;;;6.18;3.15;;;;;;;;;;5116338;28;20127;-76
2021/03/06 04:53:06;;;;;;;5.57;2.53;;;;;;;;;;5116460;28;20039;-76
2021/03/06 04:55:31;;;;;;;6.32;2.40;;;;;;;;;;5116423;28;20038;-77
2021/03/06 04:57:57;;;;;;;4.68;2.70;;;;;;;;;;5116384;28;20110;-77
2021/03/06 05:00:23;;;;;;;5.93;2.95;;;;;;;;;;5115084;28;20101;-77
2021/03/06 05:02:48;;;;;;;4.90;2.28;;;;;;;;;;5116088;28;20036;-77
2021/03/06 05:05:13;;;;;;;4.30;2.47;;;;;;;;;;5116199;28;20422;-76
2021/03/06 05:07:39;;;;;;;5.38;2.88;;;;;;;;;;5116436;27;20366;-77
2021/03/06 05:10:06;;;;;;;5.00;2.72;;;;;;;;;;5116255;28;20040;-77
2021/03/06 05:12:31;;;;;;;5.25;2.30;;;;;;;;;;5116100;28;20088;-77
2021/03/06 05:14:57;;;;;;;8.23;2.85;;;;;;;;;;5114790;28;20035;-77
2021/03/06 05:17:22;;;;;;;5.30;2.85;;;;;;;;;;5115951;28;20111;-77
2021/03/06 05:19:48;;;;;;;4.68;2.95;;;;;;;;;;5115998;28;20074;-77
2021/03/06 05:22:13;;;;;;;8.93;2.28;;;;;;;;;;5115904;28;20023;-77
2021/03/06 05:24:39;;;;;;;9.50;2.75;;;;;;;;;;5115058;28;20043;-77
2021/03/06 05:27:04;;;;;;;6.22;2.38;;;;;;;;;;5115844;28;20219;-77
2021/03/06 05:29:31;;;;;;;3.80;2.67;;;;;;;;;;5115864;28;20038;-77
2021/03/06 05:31:57;;;;;;;4.43;2.28;;;;;;;;;;5114378;28;20480;-77
2021/03/06 05:34:22;;;;;;;4.45;2.53;;;;;;;;;;5114531;28;20036;-77
2021/03/06 05:36:49;;;;;;;6.40;2.28;;;;;;;;;;5115557;28;20031;-77
2021/03/06 05:39:15;;;;;;;6.05;2.20;;;;;;;;;;5114317;28;20501;-77
2021/03/06 05:41:40;;;;;;;4.72;2.58;;;;;;;;;;5115733;28;20032;-77
2021/03/06 05:44:06;;;;;;;5.25;2.40;;;;;;;;;;5120758;27;20050;-77
2021/03/06 05:46:32;;;;;;;4.88;2.80;;;;;;;;;;5136013;27;20039;-77
2021/03/06 05:48:57;;;;;;;3.25;2.60;;;;;;;;;;5135880;27;20054;-77
2021/03/06 05:51:24;;;;;;;10.13;3.05;;;;;;;;;;5134789;27;20035;-76
2021/03/06 05:53:51;;;;;;;5.57;3.25;;;;;;;;;;5135817;27;20027;-77
2021/03/06 05:56:19;;;;;;;5.75;2.53;;;;;;;;;;5135688;27;20083;-77
2021/03/06 05:58:47;;;;;;;7.90;2.65;;;;;;;;;;5135663;27;20038;-77
2021/03/06 06:01:14;;;;;;;6.32;2.42;;;;;;;;;;5135633;27;20119;-77
2021/03/06 06:03:41;;;;;;;3.92;2.58;;;;;;;;;;5117146;27;20038;-77
2021/03/06 06:06:08;;;;;;;5.50;2.78;;;;;;;;;;5135099;27;20114;-77
2021/03/06 06:08:34;;;;;;;3.72;2.53;;;;;;;;;;5135325;27;20049;-77
2021/03/06 06:11:01;;;;;;;5.72;2.58;;;;;;;;;;5135698;27;20110;-76
2021/03/06 06:13:26;;;;;;;5.65;3.30;;;;;;;;;;5116916;27;20035;-77
2021/03/06 06:15:53;;;;;;;8.05;2.60;;;;;;;;;;5116615;27;20027;-77
2021/03/06 06:18:19;;;;;;;5.50;2.90;;;;;;;;;;5134583;27;20045;-77
2021/03/06 06:20:44;;;;;;;3.45;2.35;;;;;;;;;;5134835;27;20035;-77
2021/03/06 06:23:16;;;;;;;4.72;2.72;;;;;;;;;;5116768;27;20042;-77
2021/03/06 06:25:43;;;;;;;9.15;2.60;;;;;;;;;;5116781;27;20031;-77
2021/03/06 06:28:08;;;;;;;9.15;3.17;;;;;;;;;;5135185;27;20066;-77
2021/03/06 06:30:34;;;;;;;6.38;3.38;;;;;;;;;;5134985;27;20062;-77
2021/03/06 06:33:00;;;;;;;6.45;2.60;;;;;;;;;;5134811;27;20034;-77
2021/03/06 06:35:25;;;;;;;6.68;2.88;;;;;;;;;;5116771;27;20031;-77
2021/03/06 06:38:09;;;;;;;7.18;2.33;;;;;;;;;;5134910;27;20492;-77
2021/03/06 06:40:37;;;;;;;4.82;2.78;;;;;;;;;;5116788;27;20063;-77
2021/03/06 06:43:23;;;;;;;7.15;2.95;;;;;;;;;;5134748;27;20118;-77
2021/03/06 06:45:49;;;;;;;8.70;3.27;;;;;;;;;;5116290;27;20051;-77
2021/03/06 06:48:15;;;;;;;13.30;3.22;;;;;;;;;;5134438;27;20064;-77
2021/03/06 06:50:40;;;;;;;7.43;3.65;;;;;;;;;;5112826;28;20031;-77
2021/03/06 06:53:06;;;;;;;4.90;2.78;;;;;;;;;;5114294;28;20042;-76
2021/03/06 06:55:38;;;;;;;4.30;2.60;;;;;;;;;;5114171;28;20360;-77
2021/03/06 06:58:04;;;;;;;9.07;3.08;;;;;;;;;;5112939;28;20035;-77
2021/03/06 07:00:31;;;;;;;6.90;3.88;;;;;;;;;;5114059;28;20031;-77
2021/03/06 07:03:04;;;;;;;9.40;5.03;;;;;;;;;;5113925;28;20039;-77
2021/03/06 07:05:34;;;;;;;7.95;5.60;;;;;;;;;;5113850;28;20165;-76
2021/03/06 07:08:02;;;;;;;8.60;5.97;;;;;;;;;;5113697;28;20168;-77
2021/03/06 07:10:34;;;;;;;11.98;7.47;;;;;;;;;;5113830;28;20400;-77
2021/03/06 07:13:02;;;;;;;14.80;7.53;;;;;;;;;;5114085;28;20536;-77
2021/03/06 07:15:30;;;;;;;13.75;9.38;;;;;;;;;;5095269;28;20028;-76
2021/03/06 07:17:57;;;;;;;14.98;8.95;;;;;;;;;;5112639;28;20065;-77
2021/03/06 07:20:22;;;;;;;11.43;6.80;;;;;;;;;;5131333;27;20149;-76
2021/03/06 07:22:52;;;;;;;9.20;5.30;;;;;;;;;;5134494;27;20489;-77
2021/03/06 07:25:18;;;;;;;9.43;4.63;;;;;;;;;;5114993;28;20118;-76
2021/03/06 07:27:44;;;;;;;6.05;3.50;;;;;;;;;;5133849;27;20473;-76
2021/03/06 07:30:12;;;;;;;8.02;4.28;;;;;;;;;;5115613;28;20042;-76
2021/03/06 07:32:39;;;;;;;6.65;3.55;;;;;;;;;;5117341;28;20130;-76
2021/03/06 07:35:07;;;;;;;10.57;3.90;;;;;;;;;;5115922;28;20043;-76
2021/03/06 07:37:33;;;;;;;8.43;4.63;;;;;;;;;;5116218;28;20035;-75
2021/03/06 07:40:06;;;;;;;9.80;4.40;;;;;;;;;;5134031;28;20046;-76
2021/03/06 07:42:46;;;;;;;6.15;4.38;;;;;;;;;;5133503;28;20058;-75
2021/03/06 07:45:16;;;;;;;8.20;4.68;;;;;;;;;;5133835;27;20043;-74
2021/03/06 07:47:43;;;;;;;7.40;4.47;;;;;;;;;;5134050;28;20362;-73
2021/03/06 07:50:19;;;;;;;6.97;3.70;;;;;;;;;;5133416;28;20030;-74
2021/03/06 07:52:46;;;;;;;4.78;3.30;;;;;;;;;;5133966;28;20053;-74
2021/03/06 07:55:13;;;;;;;7.53;3.70;;;;;;;;;;5133906;27;20031;-74
2021/03/06 07:58:18;;;;;;;10.02;4.10;;;;;;;;;;5133990;28;20074;-76
2021/03/06 08:00:43;;;;;;;5.38;3.50;;;;;;;;;;5133963;28;20047;-75
2021/03/06 08:03:21;;;;;;;10.45;4.93;;;;;;;;;;5115415;28;20138;-76
2021/03/06 08:05:46;;;;;;;19.50;6.50;;;;;;;;;;5133784;27;20027;-74
2021/03/06 08:08:30;;;;;;;10.55;6.85;;;;;;;;;;5115656;28;20350;-76
2021/03/06 08:11:16;;;;;;;17.15;8.50;;;;;;;;;;5133956;28;20468;-76
2021/03/06 08:13:47;;;;;;;11.65;5.45;;;;;;;;;;5132998;27;20087;-75
2021/03/06 08:18:47;;;;;;;10.30;4.68;;;;;;;;;;5133437;28;20142;-76
2021/03/06 08:21:35;;;;;;;10.52;5.22;;;;;;;;;;5115380;28;20058;-75
2021/03/06 08:24:16;;;;;;;12.65;6.65;;;;;;;;;;5115407;27;20041;-76
2021/03/06 08:26:57;;;;;;;12.10;5.15;;;;;;;;;;5133846;28;20035;-74
2021/03/06 08:29:23;;;;;;;39.63;17.98;;;;;;;;;;5135338;27;20035;-76
2021/03/06 08:32:08;;;;;;;23.85;8.07;;;;;;;;;;5137671;27;20042;-73
2021/03/06 08:34:36;;;;;;;12.13;5.57;;;;;;;;;;5137229;27;20069;-73
2021/03/06 08:37:19;;;;;;;11.27;5.30;;;;;;;;;;5136710;27;20039;-73
2021/03/06 08:39:51;;;;;;;8.73;5.03;;;;;;;;;;5101756;27;20053;-72
2021/03/06 08:42:24;;;;;;;9.98;6.15;;;;;;;;;;5118887;27;20074;-72
2021/03/06 08:44:50;;;;;;;49.65;9.32;;;;;;;;;;5136513;27;20519;-72
2021/03/06 08:47:36;;;;;;;13.68;7.60;;;;;;;;;;5136848;27;20126;-72
2021/03/06 08:50:07;;;;;;;8.77;5.45;;;;;;;;;;5137131;27;20027;-72
2021/03/06 08:52:32;;;;;;;13.65;6.05;;;;;;;;;;5136754;27;20130;-73
2021/03/06 08:54:58;;;;;;;12.07;6.07;;;;;;;;;;5136702;27;20114;-73
2021/03/06 08:57:25;;;;;;;19.05;5.70;;;;;;;;;;5137053;27;20050;-73
2021/03/06 08:59:51;;;;;;;17.70;6.72;;;;;;;;;;5137001;27;20050;-73
2021/03/06 09:02:25;;;;;;;15.25;6.22;;;;;;;;;;5136999;27;20027;-73
2021/03/06 09:05:02;;;;;;;17.70;7.40;;;;;;;;;;5136790;27;20046;-73
2021/03/06 09:07:29;;;;;;;13.52;5.95;;;;;;;;;;5136794;27;20113;-72
2021/03/06 09:09:55;;;;;;;11.18;7.20;;;;;;;;;;5136703;27;20172;-72
2021/03/06 09:12:20;;;;;;;16.00;6.68;;;;;;;;;;5118359;27;20068;-72
2021/03/06 09:14:46;;;;;;;9.32;5.22;;;;;;;;;;5118380;27;20075;-73
2021/03/06 09:17:12;;;;;;;10.85;5.75;;;;;;;;;;5136285;27;20469;-73
2021/03/06 09:19:38;;;;;;;16.98;6.88;;;;;;;;;;5135866;27;20042;-73
2021/03/06 09:22:08;;;;;;;13.77;7.43;;;;;;;;;;5136385;27;20061;-73
2021/03/06 09:24:48;;;;;;;9.65;6.18;;;;;;;;;;5135727;27;20049;-74
2021/03/06 09:27:15;;;;;;;10.55;5.40;;;;;;;;;;5134647;27;20039;-73
2021/03/06 09:29:41;;;;;;;10.60;5.68;;;;;;;;;;5135934;27;20059;-73
2021/03/06 09:32:07;;;;;;;10.48;5.63;;;;;;;;;;5136586;27;20031;-74
2021/03/06 09:34:33;;;;;;;8.77;5.40;;;;;;;;;;5117905;27;20442;-74
2021/03/06 09:36:59;;;;;;;9.95;5.78;;;;;;;;;;5117768;27;20074;-74
2021/03/06 09:39:25;;;;;;;13.10;6.60;;;;;;;;;;5136027;27;20407;-75
2021/03/06 09:41:53;;;;;;;11.90;5.32;;;;;;;;;;5135171;27;20458;-75
2021/03/06 09:44:18;;;;;;;15.48;6.65;;;;;;;;;;5117331;27;20045;-75
2021/03/06 09:46:45;;;;;;;13.20;6.60;;;;;;;;;;5135963;27;20403;-74
2021/03/06 09:49:14;;;;;;;12.73;6.22;;;;;;;;;;5117280;27;20129;-74
2021/03/06 09:51:40;;;;;;;13.55;6.18;;;;;;;;;;5135720;27;20114;-74
2021/03/06 09:54:06;;;;;;;10.73;5.07;;;;;;;;;;5135915;27;20129;-73
2021/03/06 09:56:32;;;;;;;11.52;4.90;;;;;;;;;;5135857;27;20412;-75
2021/03/06 09:58:59;;;;;;;12.27;5.28;;;;;;;;;;5135069;27;20031;-74
2021/03/06 10:01:25;;;;;;;7.18;4.20;;;;;;;;;;5116584;27;20042;-74
2021/03/06 10:03:50;;;;;;;11.75;4.78;;;;;;;;;;5135709;27;20055;-75
2021/03/06 10:06:22;;;;;;;11.85;4.78;;;;;;;;;;5135762;27;20448;-74
2021/03/06 10:08:49;;;;;;;10.52;5.28;;;;;;;;;;5135382;27;20050;-75
2021/03/06 10:11:15;;;;;;;9.00;4.47;;;;;;;;;;5135423;27;20038;-73
2021/03/06 10:13:43;;;;;;;13.75;4.43;;;;;;;;;;5135694;27;20042;-73
2021/03/06 10:16:09;;;;;;;9.77;4.65;;;;;;;;;;5135400;27;20035;-74
2021/03/06 10:18:41;;;;;;;13.80;5.25;;;;;;;;;;5134532;27;20066;-73
2021/03/06 10:21:21;;;;;;;9.68;4.55;;;;;;;;;;5135292;27;20503;-73
2021/03/06 10:23:49;;;;;;;10.30;4.30;;;;;;;;;;5135216;27;20130;-75
2021/03/06 10:26:17;;;;;;;7.82;4.05;;;;;;;;;;5135345;27;20031;-74
2021/03/06 10:28:43;;;;;;;7.63;4.00;;;;;;;;;;5116919;27;20035;-74
2021/03/06 10:31:35;;;;;;;8.30;3.83;;;;;;;;;;5135204;27;20035;-74
2021/03/06 10:34:21;;;;;;;9.50;3.88;;;;;;;;;;5126421;27;20504;-74
2021/03/06 10:37:05;;;;;;;6.47;3.15;;;;;;;;;;5135079;27;20031;-74
2021/03/06 10:39:31;;;;;;;6.70;3.22;;;;;;;;;;5135158;27;20365;-74
2021/03/06 10:41:57;;;;;;;8.27;3.35;;;;;;;;;;5116599;27;20164;-75
2021/03/06 10:44:23;;;;;;;4.18;2.45;;;;;;;;;;5134889;27;20485;-74
2021/03/06 10:47:01;;;;;;;11.57;2.50;;;;;;;;;;5134934;27;20035;-74
2021/03/06 10:49:44;;;;;;;8.73;2.83;;;;;;;;;;5134811;27;20067;-74
2021/03/06 10:52:29;;;;;;;5.35;2.45;;;;;;;;;;5134596;27;20069;-75
2021/03/06 10:54:57;;;;;;;10.48;3.45;;;;;;;;;;5134875;27;20471;-75
2021/03/06 10:57:23;;;;;;;7.97;2.80;;;;;;;;;;5134876;27;20473;-77
2021/03/06 10:59:48;;;;;;;5.78;2.28;;;;;;;;;;5134920;27;20031;-74
2021/03/06 11:02:31;;;;;;;9.80;2.78;;;;;;;;;;5134606;27;20502;-76
2021/03/06 11:05:19;;;;;;;6.65;3.08;;;;;;;;;;5134644;27;20121;-76
2021/03/06 11:07:45;;;;;;;5.18;2.13;;;;;;;;;;5134478;27;20039;-75
2021/03/06 11:10:11;;;;;;;8.02;2.60;;;;;;;;;;5134627;27;20035;-75
2021/03/06 11:12:36;;;;;;;4.28;1.85;;;;;;;;;;5133748;27;20081;-74
2021/03/06 11:15:09;;;;;;;10.13;2.90;;;;;;;;;;5116036;27;20030;-75
2021/03/06 11:17:35;;;;;;;5.70;2.58;;;;;;;;;;5134385;27;20031;-76
2021/03/06 11:20:01;;;;;;;7.68;2.40;;;;;;;;;;5134138;27;20107;-74
2021/03/06 11:22:27;;;;;;;5.05;2.40;;;;;;;;;;5134056;27;20177;-74
2021/03/06 11:24:53;;;;;;;6.07;2.67;;;;;;;;;;5133497;27;20027;-74
2021/03/06 11:27:18;;;;;;;7.97;2.75;;;;;;;;;;5115904;28;20420;-74
2021/03/06 11:29:44;;;;;;;7.05;2.30;;;;;;;;;;5134295;27;20039;-74
2021/03/06 11:32:10;;;;;;;6.13;2.30;;;;;;;;;;5134144;28;20046;-74
2021/03/06 11:34:35;;;;;;;6.55;2.75;;;;;;;;;;5115811;28;20026;-74
2021/03/06 11:37:00;;;;;;;8.35;2.88;;;;;;;;;;5134140;28;20030;-74
2021/03/06 11:39:26;;;;;;;5.35;2.75;;;;;;;;;;5134436;28;20069;-74
2021/03/06 11:41:51;;;;;;;8.07;2.80;;;;;;;;;;5115629;28;20031;-74
2021/03/06 11:44:17;;;;;;;5.30;2.75;;;;;;;;;;5133997;27;20050;-74
2021/03/06 11:46:42;;;;;;;4.95;2.72;;;;;;;;;;5134185;28;20062;-74
2021/03/06 11:49:07;;;;;;;4.90;2.50;;;;;;;;;;5133353;28;20027;-74
2021/03/06 11:51:34;;;;;;;9.45;4.28;;;;;;;;;;5115747;28;20039;-74
2021/03/06 11:54:00;;;;;;;6.43;2.88;;;;;;;;;;5134100;27;20031;-74
2021/03/06 11:56:25;;;;;;;4.78;2.95;;;;;;;;;;5133975;28;20054;-74
2021/03/06 11:58:57;;;;;;;7.72;2.90;;;;;;;;;;5133869;28;20114;-74
2021/03/06 12:01:22;;;;;;;6.50;3.72;;;;;;;;;;5133897;28;20035;-74
2021/03/06 12:03:48;;;;;;;6.30;2.83;;;;;;;;;;5116201;27;20034;-74
2021/03/06 12:06:14;;;;;;;5.80;3.30;;;;;;;;;;5138031;27;20059;-74
2021/03/06 12:08:39;;;;;;;4.93;2.85;;;;;;;;;;5119775;27;20027;-74
2021/03/06 12:11:04;;;;;;;8.00;3.42;;;;;;;;;;5138035;27;20030;-74
2021/03/06 12:13:31;;;;;;;6.80;3.28;;;;;;;;;;5138006;27;20065;-74
2021/03/06 12:15:58;;;;;;;7.63;3.08;;;;;;;;;;5119510;27;20369;-74
2021/03/06 12:18:23;;;;;;;8.73;3.33;;;;;;;;;;5137113;27;20038;-74
2021/03/06 12:20:49;;;;;;;7.07;3.28;;;;;;;;;;5137787;27;20043;-74
2021/03/06 12:23:14;;;;;;;9.68;3.33;;;;;;;;;;5137799;27;20043;-74
2021/03/06 12:25:40;;;;;;;4.50;3.03;;;;;;;;;;5119266;27;20035;-74
2021/03/06 12:28:05;;;;;;;8.13;3.40;;;;;;;;;;5119260;27;20037;-74
2021/03/06 12:30:31;;;;;;;4.53;2.80;;;;;;;;;;5119194;27;20480;-74
2021/03/06 12:32:56;;;;;;;5.20;2.58;;;;;;;;;;5137521;27;20046;-74
2021/03/06 12:35:22;;;;;;;8.05;2.88;;;;;;;;;;5137620;27;20080;-74
2021/03/06 12:37:47;;;;;;;6.30;2.78;;;;;;;;;;5137420;27;20035;-74
2021/03/06 12:40:13;;;;;;;3.90;2.60;;;;;;;;;;5137303;27;20039;-74
2021/03/06 12:42:39;;;;;;;8.40;2.78;;;;;;;;;;5119177;27;20031;-74
2021/03/06 12:45:06;;;;;;;6.32;2.53;;;;;;;;;;5137132;27;20042;-74
2021/03/06 12:47:32;;;;;;;4.20;2.47;;;;;;;;;;5137172;27;20031;-74
2021/03/06 12:49:57;;;;;;;2.88;2.03;;;;;;;;;;5136584;27;20035;-74
2021/03/06 12:52:23;;;;;;;6.43;2.70;;;;;;;;;;5137057;27;20046;-74
2021/03/06 12:54:49;;;;;;;5.55;2.58;;;;;;;;;;5118522;27;20050;-74
2021/03/06 12:57:14;;;;;;;6.72;2.88;;;;;;;;;;5137002;27;20034;-74
2021/03/06 12:59:40;;;;;;;8.55;3.17;;;;;;;;;;5137133;27;20392;-74
2021/03/06 13:02:06;;;;;;;5.93;3.00;;;;;;;;;;5118683;27;20388;-74
2021/03/06 13:04:32;;;;;;;5.22;2.42;;;;;;;;;;5136700;27;20372;-73
2021/03/06 13:06:57;;;;;;;6.00;2.70;;;;;;;;;;5136758;27;20038;-74
2021/03/06 13:09:22;;;;;;;4.00;2.47;;;;;;;;;;5136712;27;20434;-74
2021/03/06 13:11:48;;;;;;;6.05;2.50;;;;;;;;;;5118332;27;20039;-74
2021/03/06 13:14:14;;;;;;;7.18;2.63;;;;;;;;;;5136535;27;20118;-74
2021/03/06 13:16:39;;;;;;;5.18;2.58;;;;;;;;;;5136363;27;20027;-74
2021/03/06 13:19:05;;;;;;;7.32;2.60;;;;;;;;;;5136405;27;20499;-74
2021/03/06 13:21:30;;;;;;;4.10;2.45;;;;;;;;;;5116207;27;20119;-74
2021/03/06 13:23:56;;;;;;;5.30;2.45;;;;;;;;;;5115279;28;20077;-74
2021/03/06 13:26:23;;;;;;;5.05;2.33;;;;;;;;;;5096705;28;20367;-75
2021/03/06 13:28:49;;;;;;;3.55;2.38;;;;;;;;;;5115647;28;20526;-75
2021/03/06 13:31:15;;;;;;;6.85;3.58;;;;;;;;;;5115134;28;20401;-74
2021/03/06 13:33:40;;;;;;;4.35;2.20;;;;;;;;;;5115653;28;20036;-75
2021/03/06 13:36:06;;;;;;;7.85;3.13;;;;;;;;;;5097396;28;20039;-75
2021/03/06 13:38:32;;;;;;;6.22;3.15;;;;;;;;;;5115444;28;20115;-75
2021/03/06 13:40:57;;;;;;;9.25;4.57;;;;;;;;;;5115374;28;20040;-74
2021/03/06 13:43:22;;;;;;;5.80;2.90;;;;;;;;;;5115386;28;20035;-74
2021/03/06 13:45:48;;;;;;;7.85;2.88;;;;;;;;;;5115111;28;20040;-74
2021/03/06 13:48:13;;;;;;;7.97;2.92;;;;;;;;;;5097300;28;20032;-74
2021/03/06 13:50:39;;;;;;;6.97;3.53;;;;;;;;;;5128148;27;20034;-73
2021/03/06 13:53:05;;;;;;;6.65;3.42;;;;;;;;;;5135739;27;20465;-73
2021/03/06 13:55:32;;;;;;;4.72;2.75;;;;;;;;;;5136143;27;20122;-78
2021/03/06 13:57:58;;;;;;;6.85;3.03;;;;;;;;;;5136219;27;20031;-75
2021/03/06 14:00:23;;;;;;;7.35;2.80;;;;;;;;;;5134883;27;20391;-74
2021/03/06 14:02:49;;;;;;;4.97;2.90;;;;;;;;;;5136230;27;20042;-78
2021/03/06 14:05:15;;;;;;;9.70;3.30;;;;;;;;;;5142078;27;20074;-79
2021/03/06 14:07:40;;;;;;;5.60;2.75;;;;;;;;;;5142048;27;20031;-79
2021/03/06 14:10:06;;;;;;;6.03;2.53;;;;;;;;;;5142010;27;20027;-81
2021/03/06 14:12:32;;;;;;;4.22;2.83;;;;;;;;;;5142091;27;20035;-80
2021/03/06 14:14:58;;;;;;;7.90;3.35;;;;;;;;;;5141567;27;20377;-79
2021/03/06 14:17:23;;;;;;;6.55;2.90;;;;;;;;;;5123035;27;20093;-80
2021/03/06 14:19:49;;;;;;;6.43;3.22;;;;;;;;;;5129349;27;20035;-84
2021/03/06 14:22:14;;;;;;;5.18;3.03;;;;;;;;;;5119960;28;20050;-85
2021/03/06 14:24:40;;;;;;;4.00;2.35;;;;;;;;;;5119159;28;20027;-81
2021/03/06 14:27:05;;;;;;;6.57;2.83;;;;;;;;;;5118432;28;20079;-79
2021/03/06 14:29:31;;;;;;;8.02;2.65;;;;;;;;;;5118482;28;20042;-77
2021/03/06 14:31:56;;;;;;;7.22;2.80;;;;;;;;;;5118512;28;20053;-79
2021/03/06 14:34:22;;;;;;;6.35;2.88;;;;;;;;;;5118448;28;20047;-80
2021/03/06 14:36:47;;;;;;;4.60;2.53;;;;;;;;;;5119097;28;20031;-80
2021/03/06 14:39:14;;;;;;;6.18;3.08;;;;;;;;;;5119029;28;20027;-78
2021/03/06 14:41:40;;;;;;;6.03;2.65;;;;;;;;;;5099582;28;20134;-78
2021/03/06 14:44:06;;;;;;;6.32;2.60;;;;;;;;;;5117417;28;20043;-78
2021/03/06 14:46:33;;;;;;;4.85;2.42;;;;;;;;;;5115258;28;20411;-78
2021/03/06 14:48:59;;;;;;;5.00;3.03;;;;;;;;;;5120781;27;20456;-78